createdAt,value
2019-01-16T00:01:35.398Z,30.20
2019-01-16T00:04:21.283Z,30.60
2019-01-16T00:07:01.216Z,30.70
2019-01-16T00:09:41.055Z,30.80
2019-01-16T00:12:18.061Z,30.70
2019-01-16T00:15:08.440Z,30.80
2019-01-16T00:17:45.448Z,30.70
2019-01-16T00:20:19.387Z,30.40
2019-01-16T00:23:02.788Z,30.40
2019-01-16T00:25:53.680Z,30.40
2019-01-16T00:28:36.581Z,30.40
2019-01-16T00:31:10.052Z,30.70
2019-01-16T00:33:44.198Z,30.90
2019-01-16T00:36:31.638Z,31.10
2019-01-16T00:39:21.916Z,31.30
2019-01-16T00:41:55.740Z,31.40
2019-01-16T00:44:32.807Z,31.30
2019-01-16T00:47:09.877Z,31.20
2019-01-16T00:49:51.068Z,31.00
2019-01-16T00:52:24.882Z,31.00
2019-01-16T00:55:14.136Z,31.00
2019-01-16T00:57:48.666Z,31.20
2019-01-16T01:00:39.967Z,31.50
2019-01-16T01:03:13.887Z,31.80
2019-01-16T01:05:51.181Z,32.00
2019-01-16T01:08:34.006Z,32.00
2019-01-16T01:11:07.806Z,31.80
2019-01-16T01:13:41.946Z,32.00
2019-01-16T01:16:15.837Z,32.10
2019-01-16T01:18:56.484Z,32.40
2019-01-16T01:21:36.754Z,32.60
2019-01-16T01:24:14.557Z,32.70
2019-01-16T01:26:48.490Z,33.00
2019-01-16T01:29:32.147Z,33.70
2019-01-16T01:32:19.212Z,34.50
2019-01-16T01:34:54.267Z,35.10
2019-01-16T01:37:32.052Z,35.40
2019-01-16T01:40:06.133Z,35.80
2019-01-16T01:42:40.905Z,35.90
2019-01-16T01:45:15.716Z,36.40
2019-01-16T01:47:59.883Z,36.00
2019-01-16T01:50:49.534Z,36.00
2019-01-16T01:53:32.488Z,35.70
2019-01-16T01:56:06.731Z,34.80
2019-01-16T01:58:44.458Z,34.90
2019-01-16T02:01:28.609Z,34.40
2019-01-16T02:04:19.827Z,33.50
2019-01-16T02:06:54.655Z,32.60
2019-01-16T02:09:29.183Z,31.80
2019-01-16T02:12:21.116Z,31.20
2019-01-16T02:14:55.115Z,30.80
2019-01-16T02:17:43.901Z,30.40
2019-01-16T02:20:24.236Z,30.10
2019-01-16T02:22:58.372Z,29.50
2019-01-16T02:25:44.140Z,29.10
2019-01-16T02:28:18.418Z,28.90
2019-01-16T02:31:08.244Z,28.60
2019-01-16T02:33:51.458Z,28.40
2019-01-16T02:36:28.439Z,28.20
2019-01-16T02:39:17.813Z,28.10
2019-01-16T02:41:57.663Z,27.90
2019-01-16T02:44:50.134Z,27.90
2019-01-16T02:47:30.151Z,27.70
2019-01-16T02:50:07.157Z,27.70
2019-01-16T02:52:48.500Z,27.70
2019-01-16T02:55:25.926Z,27.60
2019-01-16T02:58:14.790Z,27.50
2019-01-16T03:00:58.358Z,27.40
2019-01-16T03:03:38.304Z,27.40
2019-01-16T03:06:16.210Z,27.40
2019-01-16T03:09:02.457Z,27.30
2019-01-16T03:11:39.769Z,27.30
2019-01-16T03:14:13.754Z,27.20
2019-01-16T03:17:00.073Z,27.20
2019-01-16T03:19:37.749Z,27.20
2019-01-16T03:22:15.037Z,27.20
2019-01-16T03:25:01.244Z,27.20
2019-01-16T03:27:44.668Z,27.20
2019-01-16T03:30:21.903Z,27.20
2019-01-16T03:33:11.286Z,27.10
2019-01-16T03:35:58.238Z,26.90
2019-01-16T03:38:35.505Z,26.80
2019-01-16T03:41:15.983Z,26.80
2019-01-16T03:43:56.565Z,26.70
2019-01-16T03:46:30.982Z,26.70
2019-01-16T03:49:13.691Z,26.60
2019-01-16T03:51:46.812Z,26.60
2019-01-16T03:54:40.628Z,26.50
2019-01-16T03:57:24.606Z,26.50
2019-01-16T04:00:04.763Z,26.50
2019-01-16T04:02:45.118Z,26.50
2019-01-16T04:05:25.831Z,26.40
2019-01-16T04:08:07.051Z,26.40
2019-01-16T04:10:51.599Z,26.30
2019-01-16T04:13:28.876Z,26.30
2019-01-16T04:16:06.530Z,26.20
2019-01-16T04:18:40.742Z,26.20
2019-01-16T04:21:14.983Z,26.10
2019-01-16T04:23:49.181Z,26.10
2019-01-16T04:26:32.979Z,26.00
2019-01-16T04:29:16.515Z,26.00
2019-01-16T04:31:51.190Z,25.90
2019-01-16T04:34:27.827Z,25.80
2019-01-16T04:37:07.998Z,25.70
2019-01-16T04:39:53.978Z,25.70
2019-01-16T04:42:31.929Z,25.70
2019-01-16T04:45:06.062Z,25.60
2019-01-16T04:47:43.436Z,25.60
2019-01-16T04:50:23.469Z,25.50
2019-01-16T04:53:03.663Z,25.50
2019-01-16T04:55:37.738Z,25.50
2019-01-16T04:58:25.387Z,25.40
2019-01-16T05:01:02.379Z,25.40
2019-01-16T05:03:46.489Z,25.40
2019-01-16T05:06:23.913Z,25.30
2019-01-16T05:09:10.503Z,25.20
2019-01-16T05:11:44.603Z,25.10
2019-01-16T05:14:21.280Z,25.00
2019-01-16T05:17:12.282Z,25.00
2019-01-16T05:19:58.787Z,24.90
2019-01-16T05:22:38.995Z,24.90
2019-01-16T05:25:23.112Z,24.80
2019-01-16T05:28:04.491Z,24.80
2019-01-16T05:30:54.972Z,24.70
2019-01-16T05:33:28.991Z,24.60
2019-01-16T05:36:03.199Z,24.50
2019-01-16T05:38:49.598Z,24.50
2019-01-16T05:41:23.496Z,24.40
2019-01-16T05:43:58.801Z,24.40
2019-01-16T05:46:33.100Z,24.30
2019-01-16T05:49:07.309Z,24.30
2019-01-16T05:51:56.873Z,24.20
2019-01-16T05:54:30.798Z,24.20
2019-01-16T05:57:05.317Z,24.20
2019-01-16T05:59:42.079Z,24.20
2019-01-16T06:02:28.664Z,24.10
2019-01-16T06:05:02.585Z,24.00
2019-01-16T06:07:42.548Z,23.90
2019-01-16T06:10:34.237Z,23.90
2019-01-16T06:13:11.241Z,23.80
2019-01-16T06:15:53.953Z,23.70
2019-01-16T06:18:34.729Z,23.60
2019-01-16T06:21:17.433Z,23.60
2019-01-16T06:23:51.443Z,23.50
2019-01-16T06:26:34.870Z,23.40
2019-01-16T06:29:27.326Z,23.40
2019-01-16T06:32:07.050Z,23.30
2019-01-16T06:34:53.054Z,23.30
2019-01-16T06:37:43.464Z,23.20
2019-01-16T06:40:23.848Z,23.10
2019-01-16T06:43:16.977Z,23.10
2019-01-16T06:45:51.586Z,23.00
2019-01-16T06:48:27.153Z,23.00
2019-01-16T06:51:13.347Z,23.00
2019-01-16T06:53:49.982Z,23.00
2019-01-16T06:56:33.433Z,22.90
2019-01-16T06:59:11.434Z,22.90
2019-01-16T07:01:48.865Z,22.90
2019-01-16T07:04:35.166Z,22.80
2019-01-16T07:07:25.933Z,22.70
2019-01-16T07:09:59.869Z,22.60
2019-01-16T07:12:52.442Z,22.60
2019-01-16T07:15:42.571Z,22.50
2019-01-16T07:18:33.401Z,22.50
2019-01-16T07:21:13.139Z,22.50
2019-01-16T07:24:05.688Z,22.40
2019-01-16T07:26:55.498Z,22.40
2019-01-16T07:29:42.256Z,22.40
2019-01-16T07:32:31.049Z,22.30
2019-01-16T07:35:05.465Z,22.30
2019-01-16T07:37:45.919Z,22.30
2019-01-16T07:40:32.302Z,22.20
2019-01-16T07:43:12.695Z,22.10
2019-01-16T07:45:50.067Z,22.10
2019-01-16T07:48:25.478Z,22.10
2019-01-16T07:50:59.731Z,22.00
2019-01-16T07:53:50.243Z,21.90
2019-01-16T07:56:27.502Z,21.90
2019-01-16T07:59:13.382Z,21.90
2019-01-16T08:01:50.500Z,21.80
2019-01-16T08:04:40.658Z,21.80
2019-01-16T08:07:14.851Z,21.70
2019-01-16T08:10:04.912Z,21.80
2019-01-16T08:12:55.291Z,21.80
2019-01-16T08:15:45.444Z,21.70
2019-01-16T08:18:22.624Z,21.80
2019-01-16T08:21:05.747Z,21.80
2019-01-16T08:23:39.992Z,21.70
2019-01-16T08:26:16.843Z,21.80
2019-01-16T08:28:57.119Z,21.80
2019-01-16T08:31:34.083Z,21.80
2019-01-16T08:34:14.023Z,21.80
2019-01-16T08:36:53.908Z,21.70
2019-01-16T08:39:31.163Z,21.70
2019-01-16T08:42:08.344Z,21.70
2019-01-16T08:44:42.687Z,21.60
2019-01-16T08:47:25.998Z,21.60
2019-01-16T08:50:03.589Z,21.60
2019-01-16T08:52:49.618Z,21.60
2019-01-16T08:55:23.717Z,21.50
2019-01-16T08:58:16.376Z,21.50
2019-01-16T09:00:53.532Z,21.50
2019-01-16T09:03:33.270Z,21.40
2019-01-16T09:06:22.752Z,21.40
2019-01-16T09:09:00.086Z,21.40
2019-01-16T09:11:43.378Z,21.40
2019-01-16T09:14:17.698Z,21.40
2019-01-16T09:17:03.983Z,21.30
2019-01-16T09:19:38.303Z,21.30
2019-01-16T09:22:15.194Z,21.30
2019-01-16T09:24:49.395Z,21.30
2019-01-16T09:27:23.194Z,21.20
2019-01-16T09:30:00.314Z,21.20
2019-01-16T09:32:51.684Z,21.20
2019-01-16T09:35:25.699Z,21.20
2019-01-16T09:37:59.625Z,21.10
2019-01-16T09:40:36.735Z,21.10
2019-01-16T09:43:26.085Z,21.10
2019-01-16T09:46:03.425Z,21.10
2019-01-16T09:48:37.480Z,21.10
2019-01-16T09:51:27.993Z,21.10
2019-01-16T09:54:11.297Z,21.10
2019-01-16T09:56:55.141Z,21.10
2019-01-16T09:59:29.000Z,21.00
2019-01-16T10:02:03.447Z,21.00
2019-01-16T10:04:54.169Z,21.00
2019-01-16T10:07:31.070Z,21.00
2019-01-16T10:10:04.857Z,21.00
2019-01-16T10:12:39.195Z,20.90
2019-01-16T10:15:32.864Z,20.90
2019-01-16T10:18:07.163Z,20.90
2019-01-16T10:20:45.983Z,20.90
2019-01-16T10:23:19.807Z,20.90
2019-01-16T10:25:53.908Z,20.90
2019-01-16T10:28:37.148Z,20.80
2019-01-16T10:31:27.424Z,20.80
2019-01-16T10:34:16.823Z,20.80
2019-01-16T10:37:07.289Z,20.80
2019-01-16T10:39:54.617Z,20.80
2019-01-16T10:42:35.006Z,20.80
2019-01-16T10:45:25.274Z,20.80
2019-01-16T10:48:02.334Z,20.70
2019-01-16T10:50:53.056Z,20.70
2019-01-16T10:53:42.236Z,20.70
2019-01-16T10:56:23.002Z,20.70
2019-01-16T10:59:06.009Z,20.70
2019-01-16T11:01:40.334Z,20.70
2019-01-16T11:04:14.248Z,20.70
2019-01-16T11:06:49.010Z,20.70
2019-01-16T11:09:22.991Z,20.70
2019-01-16T11:12:12.255Z,20.70
2019-01-16T11:14:49.518Z,20.70
2019-01-16T11:17:39.933Z,20.70
2019-01-16T11:20:22.128Z,20.70
2019-01-16T11:23:12.571Z,20.70
2019-01-16T11:25:47.144Z,20.70
2019-01-16T11:28:39.706Z,20.70
2019-01-16T11:31:16.790Z,20.60
2019-01-16T11:33:53.543Z,20.60
2019-01-16T11:36:27.708Z,20.60
2019-01-16T11:39:01.782Z,20.60
2019-01-16T11:41:35.698Z,20.60
2019-01-16T11:44:10.116Z,20.60
2019-01-16T11:47:00.359Z,20.60
2019-01-16T11:49:53.190Z,20.60
2019-01-16T11:52:30.945Z,20.60
2019-01-16T11:55:17.257Z,20.50
2019-01-16T11:57:54.327Z,20.50
2019-01-16T12:00:44.099Z,20.50
2019-01-16T12:03:20.988Z,20.50
2019-01-16T12:06:01.439Z,20.50
2019-01-16T12:08:38.218Z,20.50
2019-01-16T12:11:12.210Z,20.50
2019-01-16T12:13:46.296Z,20.50
2019-01-16T12:16:36.943Z,20.50
2019-01-16T12:19:11.049Z,20.50
2019-01-16T12:21:48.250Z,20.50
2019-01-16T12:24:25.015Z,20.40
2019-01-16T12:27:11.724Z,20.40
2019-01-16T12:29:45.568Z,20.40
2019-01-16T12:32:19.770Z,20.40
2019-01-16T12:34:59.608Z,20.40
2019-01-16T12:37:37.204Z,20.40
2019-01-16T12:40:29.013Z,20.40
2019-01-16T12:43:06.220Z,20.30
2019-01-16T12:45:56.285Z,20.30
2019-01-16T12:48:47.198Z,20.30
2019-01-16T12:51:23.781Z,20.30
2019-01-16T12:53:58.815Z,20.20
2019-01-16T12:56:35.730Z,20.20
2019-01-16T12:59:13.070Z,20.20
2019-01-16T13:01:47.182Z,20.20
2019-01-16T13:04:30.943Z,20.20
2019-01-16T13:07:08.020Z,20.20
2019-01-16T13:09:47.992Z,20.20
2019-01-16T13:12:22.286Z,20.10
2019-01-16T13:14:56.381Z,20.10
2019-01-16T13:17:46.781Z,20.10
2019-01-16T13:20:20.677Z,20.20
2019-01-16T13:22:54.895Z,20.10
2019-01-16T13:25:35.066Z,20.10
2019-01-16T13:28:12.222Z,20.10
2019-01-16T13:31:02.358Z,20.10
2019-01-16T13:33:53.246Z,20.10
2019-01-16T13:36:27.043Z,20.10
2019-01-16T13:39:13.269Z,20.10
2019-01-16T13:41:59.642Z,20.00
2019-01-16T13:44:33.769Z,20.00
2019-01-16T13:47:19.968Z,20.00
2019-01-16T13:50:11.560Z,20.00
2019-01-16T13:52:51.744Z,19.90
2019-01-16T13:55:29.831Z,19.90
2019-01-16T13:58:16.446Z,19.90
2019-01-16T14:00:53.515Z,19.90
2019-01-16T14:03:27.351Z,19.90
2019-01-16T14:06:07.693Z,19.90
2019-01-16T14:08:57.482Z,19.90
2019-01-16T14:11:47.611Z,19.90
2019-01-16T14:14:30.530Z,19.90
2019-01-16T14:17:04.891Z,19.90
2019-01-16T14:19:50.982Z,19.90
2019-01-16T14:22:31.471Z,19.90
2019-01-16T14:25:08.575Z,19.90
2019-01-16T14:27:45.723Z,19.90
2019-01-16T14:30:21.779Z,19.90
2019-01-16T14:32:55.991Z,19.90
2019-01-16T14:35:29.828Z,19.90
2019-01-16T14:38:10.284Z,19.90
2019-01-16T14:40:47.244Z,19.90
2019-01-16T14:43:21.512Z,19.90
2019-01-16T14:46:01.911Z,19.90
2019-01-16T14:48:48.170Z,19.90
2019-01-16T14:51:38.214Z,19.90
2019-01-16T14:54:21.347Z,19.90
2019-01-16T14:57:02.298Z,19.80
2019-01-16T14:59:38.771Z,19.80
2019-01-16T15:02:15.851Z,19.80
2019-01-16T15:04:50.183Z,19.80
2019-01-16T15:07:27.356Z,19.80
2019-01-16T15:10:07.027Z,19.70
2019-01-16T15:12:50.034Z,19.70
2019-01-16T15:15:28.561Z,19.70
2019-01-16T15:18:02.452Z,19.70
2019-01-16T15:20:43.129Z,19.70
2019-01-16T15:23:17.013Z,19.70
2019-01-16T15:25:57.288Z,19.70
2019-01-16T15:28:47.773Z,19.70
2019-01-16T15:31:21.997Z,19.60
2019-01-16T15:34:01.951Z,19.60
2019-01-16T15:36:36.986Z,19.60
2019-01-16T15:39:12.686Z,19.70
2019-01-16T15:42:02.635Z,19.60
2019-01-16T15:44:52.074Z,19.60
2019-01-16T15:47:38.506Z,19.60
2019-01-16T15:50:14.327Z,19.60
2019-01-16T15:52:57.562Z,19.60
2019-01-16T15:55:31.592Z,19.50
2019-01-16T15:58:23.832Z,19.50
2019-01-16T16:01:07.170Z,19.50
2019-01-16T16:03:50.182Z,19.50
2019-01-16T16:06:43.036Z,19.50
2019-01-16T16:09:23.191Z,19.50
2019-01-16T16:12:04.336Z,19.50
2019-01-16T16:14:41.324Z,19.50
2019-01-16T16:17:19.084Z,19.50
2019-01-16T16:20:09.413Z,19.40
2019-01-16T16:22:46.617Z,19.40
2019-01-16T16:25:32.501Z,19.40
2019-01-16T16:28:09.826Z,19.40
2019-01-16T16:31:00.582Z,19.40
2019-01-16T16:33:34.697Z,19.40
2019-01-16T16:36:20.826Z,19.40
2019-01-16T16:39:13.387Z,19.40
2019-01-16T16:41:47.443Z,19.40
2019-01-16T16:44:30.897Z,19.40
2019-01-16T16:47:14.108Z,19.30
2019-01-16T16:49:48.319Z,19.40
2019-01-16T16:52:25.991Z,19.30
2019-01-16T16:55:00.567Z,19.40
2019-01-16T16:57:37.741Z,19.40
2019-01-16T17:00:13.885Z,19.40
2019-01-16T17:02:47.829Z,19.40
2019-01-16T17:05:40.645Z,19.30
2019-01-16T17:08:30.140Z,19.30
2019-01-16T17:11:04.659Z,19.30
2019-01-16T17:13:38.684Z,19.30
2019-01-16T17:16:19.321Z,19.30
2019-01-16T17:18:59.713Z,19.30
2019-01-16T17:21:42.814Z,19.30
2019-01-16T17:24:16.489Z,19.30
2019-01-16T17:26:50.825Z,19.40
2019-01-16T17:29:41.069Z,19.40
2019-01-16T17:32:27.566Z,19.40
2019-01-16T17:35:04.601Z,19.40
2019-01-16T17:37:50.813Z,19.40
2019-01-16T17:40:24.714Z,19.40
2019-01-16T17:42:58.824Z,19.50
2019-01-16T17:45:33.013Z,19.50
2019-01-16T17:48:19.241Z,19.50
2019-01-16T17:51:05.641Z,19.60
2019-01-16T17:53:54.722Z,19.60
2019-01-16T17:56:28.938Z,19.60
2019-01-16T17:59:19.358Z,19.70
2019-01-16T18:02:02.857Z,19.70
2019-01-16T18:04:39.938Z,19.70
2019-01-16T18:07:16.713Z,19.80
2019-01-16T18:10:06.266Z,19.80
2019-01-16T18:12:55.660Z,19.80
2019-01-16T18:15:39.166Z,19.80
2019-01-16T18:18:31.851Z,19.80
2019-01-16T18:21:09.299Z,19.90
2019-01-16T18:23:59.643Z,19.90
2019-01-16T18:26:33.847Z,19.90
2019-01-16T18:29:20.540Z,20.00
2019-01-16T18:31:54.842Z,20.00
2019-01-16T18:34:31.763Z,20.00
2019-01-16T18:37:08.827Z,20.00
2019-01-16T18:39:42.856Z,20.10
2019-01-16T18:42:33.132Z,20.10
2019-01-16T18:45:22.276Z,20.10
2019-01-16T18:47:59.164Z,20.20
2019-01-16T18:50:36.053Z,20.20
2019-01-16T18:53:19.077Z,20.20
2019-01-16T18:55:55.644Z,20.20
2019-01-16T18:58:29.946Z,20.30
2019-01-16T19:01:13.583Z,20.40
2019-01-16T19:03:54.279Z,20.40
2019-01-16T19:06:34.711Z,20.50
2019-01-16T19:09:10.972Z,20.50
2019-01-16T19:11:56.865Z,20.50
2019-01-16T19:14:42.952Z,20.50
2019-01-16T19:17:19.869Z,20.60
2019-01-16T19:20:00.328Z,20.60
2019-01-16T19:22:34.213Z,20.60
2019-01-16T19:25:15.194Z,20.60
2019-01-16T19:27:49.389Z,20.70
2019-01-16T19:30:24.721Z,20.70
2019-01-16T19:33:00.058Z,20.70
2019-01-16T19:35:34.010Z,20.80
2019-01-16T19:38:07.995Z,20.80
2019-01-16T19:40:44.887Z,20.80
2019-01-16T19:43:31.479Z,20.80
2019-01-16T19:46:20.959Z,20.70
2019-01-16T19:48:55.072Z,20.70
2019-01-16T19:51:32.571Z,20.70
2019-01-16T19:54:06.896Z,20.70
2019-01-16T19:56:40.784Z,20.70
2019-01-16T19:59:16.421Z,20.80
2019-01-16T20:01:53.852Z,20.80
2019-01-16T20:04:31.430Z,20.80
2019-01-16T20:07:05.229Z,20.90
2019-01-16T20:09:51.429Z,21.00
2019-01-16T20:12:40.907Z,21.00
2019-01-16T20:15:30.586Z,21.00
2019-01-16T20:18:05.002Z,21.10
2019-01-16T20:20:38.895Z,21.10
2019-01-16T20:23:12.911Z,21.10
2019-01-16T20:26:02.287Z,21.20
2019-01-16T20:28:52.383Z,21.30
2019-01-16T20:31:32.440Z,21.30
2019-01-16T20:34:23.015Z,21.40
2019-01-16T20:37:12.387Z,21.50
2019-01-16T20:40:04.627Z,21.50
2019-01-16T20:42:44.781Z,21.50
2019-01-16T20:45:18.808Z,21.50
2019-01-16T20:48:02.272Z,21.50
2019-01-16T20:50:39.544Z,21.50
2019-01-16T20:53:17.575Z,21.60
2019-01-16T20:56:03.915Z,21.70
2019-01-16T20:58:38.045Z,21.80
2019-01-16T21:01:28.324Z,21.90
2019-01-16T21:04:02.656Z,21.90
2019-01-16T21:06:39.540Z,22.10
2019-01-16T21:09:30.149Z,22.10
2019-01-16T21:12:20.411Z,22.20
2019-01-16T21:15:10.003Z,22.30
2019-01-16T21:17:49.935Z,22.30
2019-01-16T21:20:27.052Z,22.40
2019-01-16T21:23:03.795Z,22.60
2019-01-16T21:25:44.520Z,22.70
2019-01-16T21:28:22.160Z,22.70
2019-01-16T21:31:02.752Z,22.70
2019-01-16T21:33:49.280Z,22.80
2019-01-16T21:36:32.964Z,22.80
2019-01-16T21:39:08.304Z,22.80
2019-01-16T21:41:54.637Z,22.80
2019-01-16T21:44:37.644Z,22.80
2019-01-16T21:47:15.114Z,22.70
2019-01-16T21:50:01.333Z,22.80
2019-01-16T21:52:39.736Z,23.10
2019-01-16T21:55:26.305Z,23.20
2019-01-16T21:58:03.647Z,23.50
2019-01-16T22:00:52.929Z,23.90
2019-01-16T22:03:39.280Z,24.20
2019-01-16T22:06:19.467Z,24.40
2019-01-16T22:09:06.781Z,24.60
2019-01-16T22:11:56.858Z,24.60
2019-01-16T22:14:47.365Z,24.90
2019-01-16T22:17:27.676Z,25.10
2019-01-16T22:20:04.898Z,25.20
2019-01-16T22:22:41.582Z,25.20
2019-01-16T22:25:18.977Z,25.30
2019-01-16T22:27:55.954Z,25.60
2019-01-16T22:30:45.518Z,26.00
2019-01-16T22:33:35.907Z,26.30
2019-01-16T22:36:10.626Z,26.70
2019-01-16T22:38:47.822Z,27.20
2019-01-16T22:41:38.135Z,27.50
2019-01-16T22:44:28.527Z,27.80
2019-01-16T22:47:02.889Z,28.00
2019-01-16T22:49:42.789Z,28.10
2019-01-16T22:52:23.259Z,28.50
2019-01-16T22:55:00.223Z,28.60
2019-01-16T22:57:37.723Z,28.60
2019-01-16T23:00:22.643Z,28.70
2019-01-16T23:03:00.211Z,28.70
2019-01-16T23:05:40.625Z,28.50
2019-01-16T23:08:14.452Z,28.20
2019-01-16T23:10:48.485Z,28.60
2019-01-16T23:13:31.484Z,28.70
2019-01-16T23:16:15.213Z,28.90
2019-01-16T23:18:52.005Z,28.60
2019-01-16T23:21:28.800Z,29.00
2019-01-16T23:24:03.180Z,29.30
2019-01-16T23:26:46.615Z,29.30
2019-01-16T23:29:32.812Z,29.40
2019-01-16T23:32:09.580Z,29.70
2019-01-16T23:34:59.385Z,29.90
2019-01-16T23:37:33.291Z,29.80
2019-01-16T23:40:07.703Z,29.80
2019-01-16T23:42:58.313Z,29.70
2019-01-16T23:45:44.988Z,30.20
2019-01-16T23:48:24.864Z,30.10
2019-01-16T23:50:59.285Z,30.30
2019-01-16T23:53:45.317Z,30.40
2019-01-16T23:56:20.393Z,30.00
2019-01-16T23:58:54.508Z,30.20
